sensor_id;sensor_type;location;lat;lon;timestamp;pressure;altitude;pressure_sealevel;temperature;humidity
74637;BME280;63141;54.616;39.754;2023-02-22T00:02:06;98492.25;;;22.98;24.45
74637;BME280;63141;54.616;39.754;2023-02-22T00:05:27;98491.38;;;22.97;24.69
74637;BME280;63141;54.616;39.754;2023-02-22T00:08:34;98493.97;;;22.99;24.54
74637;BME280;63141;54.616;39.754;2023-02-22T00:11:36;98494.03;;;22.97;24.39
74637;BME280;63141;54.616;39.754;2023-02-22T00:14:38;98501.16;;;22.97;24.43
74637;BME280;63141;54.616;39.754;2023-02-22T00:17:40;98497.56;;;22.98;24.48
74637;BME280;63141;54.616;39.754;2023-02-22T00:20:42;98506.47;;;22.97;24.54
74637;BME280;63141;54.616;39.754;2023-02-22T00:23:45;98499.34;;;22.97;24.58
74637;BME280;63141;54.616;39.754;2023-02-22T00:26:51;98502.00;;;22.97;24.47
74637;BME280;63141;54.616;39.754;2023-02-22T00:29:55;98509.97;;;22.97;24.73
74637;BME280;63141;54.616;39.754;2023-02-22T00:32:57;98509.97;;;22.97;24.73
74637;BME280;63141;54.616;39.754;2023-02-22T00:35:58;98513.50;;;22.98;24.74
74637;BME280;63141;54.616;39.754;2023-02-22T00:39:01;98525.91;;;22.97;24.54
74637;BME280;63141;54.616;39.754;2023-02-22T00:42:02;98525.91;;;22.97;24.48
74637;BME280;63141;54.616;39.754;2023-02-22T00:45:05;98532.19;;;22.96;24.45
74637;BME280;63141;54.616;39.754;2023-02-22T00:48:09;98533.84;;;22.97;24.45
74637;BME280;63141;54.616;39.754;2023-02-22T00:51:11;98541.81;;;22.97;24.48
74637;BME280;63141;54.616;39.754;2023-02-22T00:54:13;98539.16;;;22.97;24.50
74637;BME280;63141;54.616;39.754;2023-02-22T00:57:14;98549.78;;;22.97;24.50
74637;BME280;63141;54.616;39.754;2023-02-22T01:00:23;98548.09;;;22.96;24.60
74637;BME280;63141;54.616;39.754;2023-02-22T01:03:30;98549.78;;;22.97;24.45
74637;BME280;63141;54.616;39.754;2023-02-22T01:06:32;98564.03;;;22.96;24.61
74637;BME280;63141;54.616;39.754;2023-02-22T01:09:34;98558.72;;;22.96;24.47
74637;BME280;63141;54.616;39.754;2023-02-22T01:12:36;98565.72;;;22.97;24.43
74637;BME280;63141;54.616;39.754;2023-02-22T01:15:41;98561.38;;;22.96;24.57
74637;BME280;63141;54.616;39.754;2023-02-22T01:18:42;98565.72;;;22.97;24.38
74637;BME280;63141;54.616;39.754;2023-02-22T01:21:44;98564.03;;;22.96;24.50
74637;BME280;63141;54.616;39.754;2023-02-22T01:24:47;98574.66;;;22.96;24.50
74637;BME280;63141;54.616;39.754;2023-02-22T01:27:50;98574.66;;;22.96;24.43
74637;BME280;63141;54.616;39.754;2023-02-22T01:30:51;98586.97;;;22.97;24.63
74637;BME280;63141;54.616;39.754;2023-02-22T01:34:01;98579.97;;;22.96;24.47
74637;BME280;63141;54.616;39.754;2023-02-22T01:37:02;98592.28;;;22.97;24.51
74637;BME280;63141;54.616;39.754;2023-02-22T01:40:07;98592.28;;;22.97;24.54
74637;BME280;63141;54.616;39.754;2023-02-22T01:46:25;98602.03;;;22.97;24.48
74637;BME280;63141;54.616;39.754;2023-02-22T01:49:32;98603.00;;;22.96;24.47
74637;BME280;63141;54.616;39.754;2023-02-22T01:52:36;98611.81;;;22.96;24.58
74637;BME280;63141;54.616;39.754;2023-02-22T01:55:38;98628.59;;;22.97;24.46
74637;BME280;63141;54.616;39.754;2023-02-22T01:58:42;98621.59;;;22.96;24.59
74637;BME280;63141;54.616;39.754;2023-02-22T02:01:45;98620.75;;;22.95;24.50
74637;BME280;63141;54.616;39.754;2023-02-22T02:04:53;98623.41;;;22.95;24.15
74637;BME280;63141;54.616;39.754;2023-02-22T02:07:57;98626.06;;;22.95;24.47
74637;BME280;63141;54.616;39.754;2023-02-22T02:11:01;98637.53;;;22.96;24.54
74637;BME280;63141;54.616;39.754;2023-02-22T02:14:03;98648.16;;;22.96;24.46
74637;BME280;63141;54.616;39.754;2023-02-22T02:17:07;98641.03;;;22.96;24.61
74637;BME280;63141;54.616;39.754;2023-02-22T02:20:18;98652.63;;;22.95;24.54
74637;BME280;63141;54.616;39.754;2023-02-22T02:27:21;98659.63;;;22.96;24.43
74637;BME280;63141;54.616;39.754;2023-02-22T02:33:34;98663.25;;;22.95;24.34
74637;BME280;63141;54.616;39.754;2023-02-22T02:36:47;98672.97;;;22.95;24.53
74637;BME280;63141;54.616;39.754;2023-02-22T02:46:10;98683.72;;;22.93;24.42
74637;BME280;63141;54.616;39.754;2023-02-22T02:49:20;98690.09;;;22.91;24.58
74637;BME280;63141;54.616;39.754;2023-02-22T02:52:24;98697.19;;;22.90;24.53
74637;BME280;63141;54.616;39.754;2023-02-22T02:55:28;98694.53;;;22.90;24.28
74637;BME280;63141;54.616;39.754;2023-02-22T02:58:30;98695.50;;;22.89;24.42
74637;BME280;63141;54.616;39.754;2023-02-22T03:08:48;98705.28;;;22.89;24.40
74637;BME280;63141;54.616;39.754;2023-02-22T03:15:28;98709.69;;;22.88;24.11
74637;BME280;63141;54.616;39.754;2023-02-22T03:18:48;98722.97;;;22.88;24.33
74637;BME280;63141;54.616;39.754;2023-02-22T03:22:19;98714.16;;;22.88;24.30
74637;BME280;63141;54.616;39.754;2023-02-22T03:25:29;98725.63;;;22.88;24.53
74637;BME280;63141;54.616;39.754;2023-02-22T03:28:37;98729.03;;;22.90;24.47
74637;BME280;63141;54.616;39.754;2023-02-22T03:31:49;98735.41;;;23.02;24.87
74637;BME280;63141;54.616;39.754;2023-02-22T03:35:18;98730.97;;;23.15;24.79
74637;BME280;63141;54.616;39.754;2023-02-22T03:38:26;98737.88;;;23.18;24.79
74637;BME280;63141;54.616;39.754;2023-02-22T03:41:30;98745.13;;;23.16;24.88
74637;BME280;63141;54.616;39.754;2023-02-22T03:47:44;98759.53;;;23.12;24.81
74637;BME280;63141;54.616;39.754;2023-02-22T03:50:47;98748.91;;;23.12;24.85
74637;BME280;63141;54.616;39.754;2023-02-22T03:53:49;98764.84;;;23.12;24.91
74637;BME280;63141;54.616;39.754;2023-02-22T03:56:58;98756.13;;;23.10;24.93
74637;BME280;63141;54.616;39.754;2023-02-22T04:00:08;98761.44;;;23.10;25.14
74637;BME280;63141;54.616;39.754;2023-02-22T04:03:13;98758.78;;;23.10;25.63
74637;BME280;63141;54.616;39.754;2023-02-22T04:06:18;98775.56;;;23.10;26.12
74637;BME280;63141;54.616;39.754;2023-02-22T04:09:20;98767.59;;;23.10;26.12
74637;BME280;63141;54.616;39.754;2023-02-22T04:12:22;98782.78;;;23.08;25.92
74637;BME280;63141;54.616;39.754;2023-02-22T04:15:37;98783.09;;;23.04;25.68
74637;BME280;63141;54.616;39.754;2023-02-22T04:18:40;98787.53;;;23.03;25.65
74637;BME280;63141;54.616;39.754;2023-02-22T04:21:42;98803.47;;;23.03;25.90
74637;BME280;63141;54.616;39.754;2023-02-22T04:24:50;98800.75;;;23.05;26.00
74637;BME280;63141;54.616;39.754;2023-02-22T04:27:52;98797.13;;;23.06;26.13
74637;BME280;63141;54.616;39.754;2023-02-22T04:30:58;98797.97;;;23.06;26.43
74637;BME280;63141;54.616;39.754;2023-02-22T04:34:00;98796.06;;;23.08;26.71
74637;BME280;63141;54.616;39.754;2023-02-22T04:37:05;98807.53;;;23.09;26.67
74637;BME280;63141;54.616;39.754;2023-02-22T04:40:09;98807.53;;;23.09;26.73
74637;BME280;63141;54.616;39.754;2023-02-22T04:43:11;98812.84;;;23.09;26.48
74637;BME280;63141;54.616;39.754;2023-02-22T04:46:14;98817.31;;;23.08;26.35
74637;BME280;63141;54.616;39.754;2023-02-22T04:49:15;98824.34;;;23.09;26.32
74637;BME280;63141;54.616;39.754;2023-02-22T04:52:18;98817.22;;;23.10;26.15
74637;BME280;63141;54.616;39.754;2023-02-22T04:55:19;98823.47;;;23.09;26.05
74637;BME280;63141;54.616;39.754;2023-02-22T04:58:23;98831.44;;;23.09;25.87
74637;BME280;63141;54.616;39.754;2023-02-22T05:01:24;98836.94;;;23.06;25.94
74637;BME280;63141;54.616;39.754;2023-02-22T05:04:30;98838.75;;;23.05;26.07
74637;BME280;63141;54.616;39.754;2023-02-22T05:07:32;98839.59;;;23.06;26.09
74637;BME280;63141;54.616;39.754;2023-02-22T05:10:33;98843.03;;;23.08;26.13
74637;BME280;63141;54.616;39.754;2023-02-22T05:13:34;98846.63;;;23.07;26.01
74637;BME280;63141;54.616;39.754;2023-02-22T05:16:36;98841.31;;;23.07;25.81
74637;BME280;63141;54.616;39.754;2023-02-22T05:19:37;98853.63;;;23.08;25.79
74637;BME280;63141;54.616;39.754;2023-02-22T05:22:39;98857.25;;;23.07;25.68
74637;BME280;63141;54.616;39.754;2023-02-22T05:25:40;98860.84;;;23.06;25.59
74637;BME280;63141;54.616;39.754;2023-02-22T05:28:42;98870.63;;;23.05;25.62
74637;BME280;63141;54.616;39.754;2023-02-22T05:31:43;98873.28;;;23.05;25.60
74637;BME280;63141;54.616;39.754;2023-02-22T05:34:45;98868.91;;;23.04;25.47
74637;BME280;63141;54.616;39.754;2023-02-22T05:37:46;98877.75;;;23.05;25.56
74637;BME280;63141;54.616;39.754;2023-02-22T05:40:47;98878.69;;;23.04;25.25
74637;BME280;63141;54.616;39.754;2023-02-22T05:43:49;98884.00;;;23.04;25.20
74637;BME280;63141;54.616;39.754;2023-02-22T05:46:50;98885.72;;;23.05;25.13
74637;BME280;63141;54.616;39.754;2023-02-22T05:49:52;98886.56;;;23.05;25.16
74637;BME280;63141;54.616;39.754;2023-02-22T05:52:54;98890.06;;;23.06;25.37
74637;BME280;63141;54.616;39.754;2023-02-22T05:55:55;98901.44;;;23.08;25.23
74637;BME280;63141;54.616;39.754;2023-02-22T05:58:57;98899.53;;;23.10;25.19
74637;BME280;63141;54.616;39.754;2023-02-22T06:01:58;98902.97;;;23.12;25.13
74637;BME280;63141;54.616;39.754;2023-02-22T06:05:05;98904.66;;;23.13;25.06
74637;BME280;63141;54.616;39.754;2023-02-22T06:08:07;98906.38;;;23.14;24.91
74637;BME280;63141;54.616;39.754;2023-02-22T06:11:09;98906.38;;;23.14;24.80
74637;BME280;63141;54.616;39.754;2023-02-22T06:14:10;98919.53;;;23.15;24.81
74637;BME280;63141;54.616;39.754;2023-02-22T06:17:14;98919.53;;;23.15;24.72
74637;BME280;63141;54.616;39.754;2023-02-22T06:20:18;98916.03;;;23.15;24.97
74637;BME280;63141;54.616;39.754;2023-02-22T06:23:19;98926.66;;;23.15;24.86
74637;BME280;63141;54.616;39.754;2023-02-22T06:26:21;98925.91;;;23.13;24.79
74637;BME280;63141;54.616;39.754;2023-02-22T06:29:23;98920.59;;;23.13;24.74
74637;BME280;63141;54.616;39.754;2023-02-22T06:32:25;98924.22;;;23.12;24.54
74637;BME280;63141;54.616;39.754;2023-02-22T06:35:27;98927.72;;;23.12;24.59
74637;BME280;63141;54.616;39.754;2023-02-22T06:38:28;98932.16;;;23.12;24.65
74637;BME280;63141;54.616;39.754;2023-02-22T06:41:29;98930.38;;;23.12;24.47
74637;BME280;63141;54.616;39.754;2023-02-22T06:44:31;98935.69;;;23.12;24.32
74637;BME280;63141;54.616;39.754;2023-02-22T06:47:52;98941.84;;;23.13;24.79
74637;BME280;63141;54.616;39.754;2023-02-22T06:50:54;98947.91;;;23.15;24.39
74637;BME280;63141;54.616;39.754;2023-02-22T06:53:55;98941.84;;;23.13;24.10
74637;BME280;63141;54.616;39.754;2023-02-22T06:59:58;98951.41;;;23.15;24.21
74637;BME280;63141;54.616;39.754;2023-02-22T07:03:03;98957.59;;;23.16;24.29
74637;BME280;63141;54.616;39.754;2023-02-22T07:06:06;98951.41;;;23.15;24.18
74637;BME280;63141;54.616;39.754;2023-02-22T07:09:10;98954.94;;;23.16;24.22
74637;BME280;63141;54.616;39.754;2023-02-22T07:12:13;98951.41;;;23.15;24.15
74637;BME280;63141;54.616;39.754;2023-02-22T07:15:16;98958.44;;;23.16;24.00
74637;BME280;63141;54.616;39.754;2023-02-22T07:18:18;98960.97;;;23.18;24.17
74637;BME280;63141;54.616;39.754;2023-02-22T07:21:19;98964.59;;;23.17;23.71
74637;BME280;63141;54.616;39.754;2023-02-22T07:24:20;98965.44;;;23.17;23.86
74637;BME280;63141;54.616;39.754;2023-02-22T07:27:22;98961.94;;;23.17;23.81
74637;BME280;63141;54.616;39.754;2023-02-22T07:30:26;98963.63;;;23.18;24.06
74637;BME280;63141;54.616;39.754;2023-02-22T07:33:30;98966.28;;;23.18;23.95
74637;BME280;63141;54.616;39.754;2023-02-22T07:36:31;98974.38;;;23.16;23.94
74637;BME280;63141;54.616;39.754;2023-02-22T07:39:33;98976.06;;;23.17;24.00
74637;BME280;63141;54.616;39.754;2023-02-22T07:43:12;98987.53;;;23.18;23.95
74637;BME280;63141;54.616;39.754;2023-02-22T07:46:10;98985.75;;;23.18;23.85
74637;BME280;63141;54.616;39.754;2023-02-22T07:49:12;98988.41;;;23.18;23.85
74637;BME280;63141;54.616;39.754;2023-02-22T07:52:14;98996.28;;;23.20;23.84
74637;BME280;63141;54.616;39.754;2023-02-22T07:55:17;99003.31;;;23.21;23.66
74637;BME280;63141;54.616;39.754;2023-02-22T07:58:21;98998.84;;;23.21;23.77
74637;BME280;63141;54.616;39.754;2023-02-22T08:01:23;98998.00;;;23.21;23.66
74637;BME280;63141;54.616;39.754;2023-02-22T08:04:30;99005.84;;;23.23;23.66
74637;BME280;63141;54.616;39.754;2023-02-22T08:07:31;98999.69;;;23.22;23.64
74637;BME280;63141;54.616;39.754;2023-02-22T08:10:34;99007.56;;;23.24;23.69
74637;BME280;63141;54.616;39.754;2023-02-22T08:13:35;99013.72;;;23.24;23.69
74637;BME280;63141;54.616;39.754;2023-02-22T08:16:37;99014.59;;;23.25;23.79
74637;BME280;63141;54.616;39.754;2023-02-22T08:19:38;99029.59;;;23.26;23.59
74637;BME280;63141;54.616;39.754;2023-02-22T08:22:42;99028.63;;;23.27;23.59
74637;BME280;63141;54.616;39.754;2023-02-22T08:25:44;99022.47;;;23.26;23.52
74637;BME280;63141;54.616;39.754;2023-02-22T08:28:45;99037.44;;;23.27;23.59
74637;BME280;63141;54.616;39.754;2023-02-22T08:31:50;99032.13;;;23.27;23.57
74637;BME280;63141;54.616;39.754;2023-02-22T08:34:54;99035.66;;;23.28;23.62
74637;BME280;63141;54.616;39.754;2023-02-22T08:37:59;99029.47;;;23.27;23.57
74637;BME280;63141;54.616;39.754;2023-02-22T08:41:00;99029.47;;;23.27;23.57
74637;BME280;63141;54.616;39.754;2023-02-22T08:44:02;99035.66;;;23.28;23.52
74637;BME280;63141;54.616;39.754;2023-02-22T08:47:04;99038.41;;;23.26;23.60
74637;BME280;63141;54.616;39.754;2023-02-22T08:50:07;99045.41;;;23.27;23.78
74637;BME280;63141;54.616;39.754;2023-02-22T08:53:10;99050.72;;;23.27;23.40
74637;BME280;63141;54.616;39.754;2023-02-22T08:56:13;99057.75;;;23.28;23.51
74637;BME280;63141;54.616;39.754;2023-02-22T08:59:15;99057.75;;;23.28;23.56
74637;BME280;63141;54.616;39.754;2023-02-22T09:02:19;99061.25;;;23.29;23.66
74637;BME280;63141;54.616;39.754;2023-02-22T09:05:28;99059.47;;;23.29;23.33
74637;BME280;63141;54.616;39.754;2023-02-22T09:08:29;99055.03;;;23.30;23.28
74637;BME280;63141;54.616;39.754;2023-02-22T09:11:31;99059.47;;;23.29;23.48
74637;BME280;63141;54.616;39.754;2023-02-22T09:14:32;99056.81;;;23.29;23.50
74637;BME280;63141;54.616;39.754;2023-02-22T09:17:34;99054.16;;;23.29;23.18
74637;BME280;63141;54.616;39.754;2023-02-22T09:20:37;99063.84;;;23.30;23.36
74637;BME280;63141;54.616;39.754;2023-02-22T09:23:38;99067.34;;;23.31;23.51
74637;BME280;63141;54.616;39.754;2023-02-22T09:26:45;99062.88;;;23.31;23.32
74637;BME280;63141;54.616;39.754;2023-02-22T09:29:47;99072.66;;;23.31;23.37
74637;BME280;63141;54.616;39.754;2023-02-22T09:32:54;99068.19;;;23.31;23.41
74637;BME280;63141;54.616;39.754;2023-02-22T09:35:56;99074.34;;;23.32;23.32
74637;BME280;63141;54.616;39.754;2023-02-22T09:39:00;99079.66;;;23.32;23.52
74637;BME280;63141;54.616;39.754;2023-02-22T09:42:10;99081.38;;;23.33;23.18
74637;BME280;63141;54.616;39.754;2023-02-22T09:45:27;99086.69;;;23.33;23.36
74637;BME280;63141;54.616;39.754;2023-02-22T09:48:34;99083.19;;;23.32;23.17
74637;BME280;63141;54.616;39.754;2023-02-22T09:52:02;99084.03;;;23.33;23.37
74637;BME280;63141;54.616;39.754;2023-02-22T09:55:08;99093.81;;;23.32;23.25
74637;BME280;63141;54.616;39.754;2023-02-22T09:58:24;99093.81;;;23.32;23.21
74637;BME280;63141;54.616;39.754;2023-02-22T10:01:39;99098.19;;;23.33;23.28
74637;BME280;63141;54.616;39.754;2023-02-22T10:04:56;99091.16;;;23.32;23.18
74637;BME280;63141;54.616;39.754;2023-02-22T10:08:07;99095.53;;;23.33;23.28
74637;BME280;63141;54.616;39.754;2023-02-22T10:20:56;99099.91;;;23.34;23.24
74637;BME280;63141;54.616;39.754;2023-02-22T10:24:01;99101.59;;;23.35;23.21
74637;BME280;63141;54.616;39.754;2023-02-22T10:27:24;99113.06;;;23.36;23.07
74637;BME280;63141;54.616;39.754;2023-02-22T10:30:32;99117.53;;;23.35;23.25
74637;BME280;63141;54.616;39.754;2023-02-22T10:33:47;99112.22;;;23.35;23.15
74637;BME280;63141;54.616;39.754;2023-02-22T10:40:26;99118.50;;;23.34;23.14
74637;BME280;63141;54.616;39.754;2023-02-22T10:43:42;99115.84;;;23.34;23.03
74637;BME280;63141;54.616;39.754;2023-02-22T10:46:44;99131.78;;;23.34;23.21
74637;BME280;63141;54.616;39.754;2023-02-22T10:49:53;99132.63;;;23.35;23.05
74637;BME280;63141;54.616;39.754;2023-02-22T10:52:55;99133.69;;;23.32;23.36
74637;BME280;63141;54.616;39.754;2023-02-22T10:59:40;99149.63;;;23.32;23.34
74637;BME280;63141;54.616;39.754;2023-02-22T11:06:19;99148.56;;;23.35;23.15
74637;BME280;63141;54.616;39.754;2023-02-22T11:09:21;99148.47;;;23.36;22.97
74637;BME280;63141;54.616;39.754;2023-02-22T11:12:34;99160.81;;;23.37;23.06
74637;BME280;63141;54.616;39.754;2023-02-22T11:15:39;99158.94;;;23.39;23.04
74637;BME280;63141;54.616;39.754;2023-02-22T11:18:40;99157.97;;;23.40;22.87
74637;BME280;63141;54.616;39.754;2023-02-22T11:21:42;99154.38;;;23.41;23.09
74637;BME280;63141;54.616;39.754;2023-02-22T11:24:53;99157.97;;;23.40;23.13
74637;BME280;63141;54.616;39.754;2023-02-22T11:28:10;99160.91;;;23.36;23.31
74637;BME280;63141;54.616;39.754;2023-02-22T11:31:20;99161.19;;;23.31;23.06
74637;BME280;63141;54.616;39.754;2023-02-22T11:34:34;99163.00;;;23.31;22.84
74637;BME280;63141;54.616;39.754;2023-02-22T11:37:36;99156.81;;;23.30;22.51
74637;BME280;63141;54.616;39.754;2023-02-22T11:40:38;99168.31;;;23.31;22.65
74637;BME280;63141;54.616;39.754;2023-02-22T11:43:45;99166.59;;;23.30;22.66
74637;BME280;63141;54.616;39.754;2023-02-22T11:46:47;99181.59;;;23.31;22.67
74637;BME280;63141;54.616;39.754;2023-02-22T11:49:49;99176.19;;;23.32;22.57
74637;BME280;63141;54.616;39.754;2023-02-22T11:53:07;99187.66;;;23.33;22.37
74637;BME280;63141;54.616;39.754;2023-02-22T12:13:33;99194.59;;;23.35;22.81
74637;BME280;63141;54.616;39.754;2023-02-22T12:23:16;99191.94;;;23.35;22.55
74637;BME280;63141;54.616;39.754;2023-02-22T12:26:24;99200.88;;;23.34;22.63
74637;BME280;63141;54.616;39.754;2023-02-22T12:29:38;99196.47;;;23.33;22.53
74637;BME280;63141;54.616;39.754;2023-02-22T12:32:45;99199.13;;;23.33;22.66
74637;BME280;63141;54.616;39.754;2023-02-22T12:35:54;99208.06;;;23.32;22.75
74637;BME280;63141;54.616;39.754;2023-02-22T12:39:00;99218.69;;;23.32;22.66
74637;BME280;63141;54.616;39.754;2023-02-22T12:42:37;99218.69;;;23.32;22.73
74637;BME280;63141;54.616;39.754;2023-02-22T12:45:47;99224.00;;;23.32;22.60
74637;BME280;63141;54.616;39.754;2023-02-22T12:52:02;99231.97;;;23.32;22.60
74637;BME280;63141;54.616;39.754;2023-02-22T13:01:24;99232.06;;;23.31;22.82
74637;BME280;63141;54.616;39.754;2023-02-22T13:04:27;99230.25;;;23.31;22.93
74637;BME280;63141;54.616;39.754;2023-02-22T13:08:01;99236.34;;;23.33;23.03
74637;BME280;63141;54.616;39.754;2023-02-22T13:11:21;99249.63;;;23.33;23.18
74637;BME280;63141;54.616;39.754;2023-02-22T13:18:07;99252.28;;;23.33;22.89
74637;BME280;63141;54.616;39.754;2023-02-22T13:21:33;99266.34;;;23.35;23.18
74637;BME280;63141;54.616;39.754;2023-02-22T13:25:01;99261.97;;;23.34;23.18
74637;BME280;63141;54.616;39.754;2023-02-22T13:28:27;99259.31;;;23.34;23.01
74637;BME280;63141;54.616;39.754;2023-02-22T13:34:58;99277.91;;;23.34;23.23
74637;BME280;63141;54.616;39.754;2023-02-22T13:41:50;99272.50;;;23.36;23.22
74637;BME280;63141;54.616;39.754;2023-02-22T13:51:48;99283.97;;;23.36;23.33
74637;BME280;63141;54.616;39.754;2023-02-22T13:54:54;99288.56;;;23.34;23.28
74637;BME280;63141;54.616;39.754;2023-02-22T13:58:02;99286.06;;;23.31;23.37
74637;BME280;63141;54.616;39.754;2023-02-22T14:01:06;99282.53;;;23.31;23.34
74637;BME280;63141;54.616;39.754;2023-02-22T14:26:38;99299.44;;;23.30;23.19
74637;BME280;63141;54.616;39.754;2023-02-22T14:30:21;99304.75;;;23.30;23.03
74637;BME280;63141;54.616;39.754;2023-02-22T14:37:22;99315.47;;;23.28;23.13
74637;BME280;63141;54.616;39.754;2023-02-22T14:40:28;99323.44;;;23.28;22.92
74637;BME280;63141;54.616;39.754;2023-02-22T14:43:34;99320.84;;;23.27;23.14
74637;BME280;63141;54.616;39.754;2023-02-22T14:46:39;99335.00;;;23.27;23.17
74637;BME280;63141;54.616;39.754;2023-02-22T14:49:44;99334.13;;;23.27;23.27
74637;BME280;63141;54.616;39.754;2023-02-22T14:59:25;99338.59;;;23.26;23.43
74637;BME280;63141;54.616;39.754;2023-02-22T15:02:37;99349.16;;;23.28;22.93
74637;BME280;63141;54.616;39.754;2023-02-22T15:05:39;99350.00;;;23.28;23.52
74637;BME280;63141;54.616;39.754;2023-02-22T15:08:44;99360.63;;;23.28;23.50
74637;BME280;63141;54.616;39.754;2023-02-22T15:11:50;99363.28;;;23.28;23.43
74637;BME280;63141;54.616;39.754;2023-02-22T15:15:10;99371.25;;;23.28;23.39
74637;BME280;63141;54.616;39.754;2023-02-22T15:21:23;99365.09;;;23.28;23.45
74637;BME280;63141;54.616;39.754;2023-02-22T15:24:33;99385.38;;;23.29;23.48
74637;BME280;63141;54.616;39.754;2023-02-22T15:27:35;99397.81;;;23.28;23.49
74637;BME280;63141;54.616;39.754;2023-02-22T15:30:37;99405.81;;;23.28;23.45
74637;BME280;63141;54.616;39.754;2023-02-22T15:33:38;99406.66;;;23.29;23.43
74637;BME280;63141;54.616;39.754;2023-02-22T15:36:41;99414.63;;;23.29;23.59
74637;BME280;63141;54.616;39.754;2023-02-22T15:39:43;99419.09;;;23.28;23.52
74637;BME280;63141;54.616;39.754;2023-02-22T15:42:52;99430.56;;;23.29;23.61
74637;BME280;63141;54.616;39.754;2023-02-22T15:45:55;99429.72;;;23.28;23.61
74637;BME280;63141;54.616;39.754;2023-02-22T15:52:20;99443.00;;;23.28;23.42
74637;BME280;63141;54.616;39.754;2023-02-22T15:55:29;99439.38;;;23.29;23.64
74637;BME280;63141;54.616;39.754;2023-02-22T15:58:32;99446.56;;;23.27;23.60
74637;BME280;63141;54.616;39.754;2023-02-22T16:01:39;99452.66;;;23.29;23.59
74637;BME280;63141;54.616;39.754;2023-02-22T16:04:47;99455.44;;;23.28;23.58
74637;BME280;63141;54.616;39.754;2023-02-22T16:07:49;99451.81;;;23.29;23.43
74637;BME280;63141;54.616;39.754;2023-02-22T16:10:58;99468.59;;;23.29;23.75
74637;BME280;63141;54.616;39.754;2023-02-22T16:14:03;99466.91;;;23.28;23.54
74637;BME280;63141;54.616;39.754;2023-02-22T16:17:23;99463.28;;;23.29;23.48
74637;BME280;63141;54.616;39.754;2023-02-22T16:20:30;99457.97;;;23.29;23.61
74637;BME280;63141;54.616;39.754;2023-02-22T16:23:49;99472.22;;;23.28;23.43
74637;BME280;63141;54.616;39.754;2023-02-22T16:27:16;99468.59;;;23.29;23.74
74637;BME280;63141;54.616;39.754;2023-02-22T16:33:20;99475.81;;;23.27;23.32
74637;BME280;63141;54.616;39.754;2023-02-22T16:36:35;99473.91;;;23.29;23.35
74637;BME280;63141;54.616;39.754;2023-02-22T16:39:37;99488.09;;;23.30;23.49
74637;BME280;63141;54.616;39.754;2023-02-22T16:42:39;99487.97;;;23.31;23.46
74637;BME280;63141;54.616;39.754;2023-02-22T16:45:40;99487.06;;;23.32;23.37
74637;BME280;63141;54.616;39.754;2023-02-22T16:48:42;99491.41;;;23.33;23.42
74637;BME280;63141;54.616;39.754;2023-02-22T16:51:54;99493.16;;;23.34;23.47
74637;BME280;63141;54.616;39.754;2023-02-22T16:54:56;99499.31;;;23.35;23.50
74637;BME280;63141;54.616;39.754;2023-02-22T16:57:57;99500.16;;;23.35;23.44
74637;BME280;63141;54.616;39.754;2023-02-22T17:01:01;99495.69;;;23.36;23.60
74637;BME280;63141;54.616;39.754;2023-02-22T17:04:19;99505.47;;;23.35;23.42
74637;BME280;63141;54.616;39.754;2023-02-22T17:07:21;99508.22;;;23.34;23.60
74637;BME280;63141;54.616;39.754;2023-02-22T17:10:31;99505.66;;;23.32;23.71
74637;BME280;63141;54.616;39.754;2023-02-22T17:13:32;99510.97;;;23.32;24.00
74637;BME280;63141;54.616;39.754;2023-02-22T17:16:35;99509.25;;;23.31;23.85
74637;BME280;63141;54.616;39.754;2023-02-22T17:19:37;99513.88;;;23.28;23.69
74637;BME280;63141;54.616;39.754;2023-02-22T17:22:39;99512.25;;;23.25;23.71
74637;BME280;63141;54.616;39.754;2023-02-22T17:25:45;99523.81;;;23.24;23.83
74637;BME280;63141;54.616;39.754;2023-02-22T17:28:49;99517.63;;;23.24;23.59
74637;BME280;63141;54.616;39.754;2023-02-22T17:31:51;99527.41;;;23.23;23.78
74637;BME280;63141;54.616;39.754;2023-02-22T17:34:53;99527.41;;;23.23;23.76
74637;BME280;63141;54.616;39.754;2023-02-22T17:37:54;99535.13;;;23.28;24.42
74637;BME280;63141;54.616;39.754;2023-02-22T17:40:57;99540.97;;;23.34;24.54
74637;BME280;63141;54.616;39.754;2023-02-22T17:43:59;99536.09;;;23.42;25.67
74637;BME280;63141;54.616;39.754;2023-02-22T17:47:00;99547.16;;;23.51;25.60
74637;BME280;63141;54.616;39.754;2023-02-22T17:50:02;99540.75;;;23.55;25.13
74637;BME280;63141;54.616;39.754;2023-02-22T17:53:03;99542.97;;;23.62;25.85
74637;BME280;63141;54.616;39.754;2023-02-22T17:56:10;99543.38;;;23.71;26.02
74637;BME280;63141;54.616;39.754;2023-02-22T17:59:13;99544.81;;;23.78;26.11
74637;BME280;63141;54.616;39.754;2023-02-22T18:02:14;99550.78;;;23.81;25.70
74637;BME280;63141;54.616;39.754;2023-02-22T18:05:21;99551.31;;;23.88;25.64
74637;BME280;63141;54.616;39.754;2023-02-22T18:08:24;99544.94;;;23.91;25.76
74637;BME280;63141;54.616;39.754;2023-02-22T18:11:28;99549.25;;;23.93;26.00
74637;BME280;63141;54.616;39.754;2023-02-22T18:14:32;99561.50;;;23.96;25.97
74637;BME280;63141;54.616;39.754;2023-02-22T18:17:35;99566.75;;;23.97;25.83
74637;BME280;63141;54.616;39.754;2023-02-22T18:20:41;99562.28;;;23.98;25.60
74637;BME280;63141;54.616;39.754;2023-02-22T18:23:44;99563.25;;;23.97;26.35
74637;BME280;63141;54.616;39.754;2023-02-22T18:26:45;99555.84;;;24.02;25.91
74637;BME280;63141;54.616;39.754;2023-02-22T18:29:47;99558.50;;;24.02;26.05
74637;BME280;63141;54.616;39.754;2023-02-22T18:32:49;99557.47;;;24.04;26.01
74637;BME280;63141;54.616;39.754;2023-02-22T18:35:50;99560.06;;;24.06;25.89
74637;BME280;63141;54.616;39.754;2023-02-22T18:38:53;99558.31;;;24.05;25.96